createdAt,value
2018-11-28T00:00:30.930Z,23.18
2018-11-28T00:02:59.202Z,24.60
2018-11-28T00:05:26.321Z,23.40
2018-11-28T00:07:53.444Z,23.00
2018-11-28T00:10:20.776Z,23.15
2018-11-28T00:12:47.862Z,23.85
2018-11-28T00:15:15.214Z,24.30
2018-11-28T00:17:42.346Z,24.20
2018-11-28T00:20:12.655Z,23.77
2018-11-28T00:22:39.906Z,24.87
2018-11-28T00:25:07.794Z,24.30
2018-11-28T00:27:34.938Z,23.85
2018-11-28T00:30:02.182Z,23.57
2018-11-28T00:32:29.302Z,23.80
2018-11-28T00:34:56.402Z,23.87
2018-11-28T00:37:23.507Z,23.30
2018-11-28T00:39:50.581Z,24.37
2018-11-28T00:42:17.926Z,24.55
2018-11-28T00:44:45.020Z,23.55
2018-11-28T00:47:12.114Z,23.87
2018-11-28T00:49:39.195Z,25.30
2018-11-28T00:52:06.355Z,24.40
2018-11-28T00:54:33.445Z,22.15
2018-11-28T00:57:00.543Z,23.90
2018-11-28T00:59:27.654Z,25.60
2018-11-28T01:01:54.738Z,23.87
2018-11-28T01:04:21.841Z,24.72
2018-11-28T01:06:48.926Z,24.27
2018-11-28T01:09:16.019Z,23.70
2018-11-28T01:11:43.126Z,23.22
2018-11-28T01:14:10.240Z,23.95
2018-11-28T01:16:37.330Z,23.32
2018-11-28T01:19:04.911Z,23.67
2018-11-28T01:21:32.006Z,22.10
2018-11-28T01:23:59.099Z,23.32
2018-11-28T01:26:26.198Z,24.12
2018-11-28T01:28:53.298Z,24.02
2018-11-28T01:31:20.440Z,23.45
2018-11-28T01:33:47.542Z,23.60
2018-11-28T01:36:14.643Z,23.92
2018-11-28T01:38:41.738Z,23.20
2018-11-28T01:41:08.828Z,24.23
2018-11-28T01:43:35.938Z,23.83
2018-11-28T01:46:03.057Z,22.98
2018-11-28T01:48:30.169Z,24.00
2018-11-28T01:50:57.287Z,23.27
2018-11-28T01:53:24.379Z,23.18
2018-11-28T01:55:51.562Z,23.95
2018-11-28T01:58:18.663Z,23.57
2018-11-28T02:00:45.783Z,22.95
2018-11-28T02:03:12.895Z,23.87
2018-11-28T02:05:39.986Z,23.55
2018-11-28T02:08:07.086Z,23.92
2018-11-28T02:10:34.177Z,23.42
2018-11-28T02:13:01.297Z,24.05
2018-11-28T02:15:28.429Z,23.15
2018-11-28T02:17:56.482Z,23.50
2018-11-28T02:20:23.612Z,24.63
2018-11-28T02:22:50.731Z,23.65
2018-11-28T02:25:17.833Z,23.85
2018-11-28T02:27:45.908Z,24.10
2018-11-28T02:30:19.941Z,24.30
2018-11-28T02:32:48.163Z,24.07
2018-11-28T02:35:15.632Z,23.38
2018-11-28T02:37:42.812Z,24.02
2018-11-28T02:40:11.164Z,24.72
2018-11-28T02:42:38.311Z,22.82
2018-11-28T02:45:11.222Z,24.00
2018-11-28T02:47:38.338Z,24.15
2018-11-28T02:50:05.530Z,23.38
2018-11-28T02:52:32.643Z,23.52
2018-11-28T02:54:59.735Z,23.00
2018-11-28T02:57:26.916Z,22.77
2018-11-28T02:59:54.010Z,23.00
2018-11-28T03:02:21.126Z,23.07
2018-11-28T03:04:48.237Z,23.15
2018-11-28T03:07:15.359Z,22.87
2018-11-28T03:09:42.495Z,22.98
2018-11-28T03:12:09.624Z,23.50
2018-11-28T03:14:36.741Z,22.93
2018-11-28T03:17:03.887Z,22.30
2018-11-28T03:19:30.998Z,23.05
2018-11-28T03:21:58.119Z,23.32
2018-11-28T03:24:25.218Z,23.83
2018-11-28T03:26:52.310Z,22.62
2018-11-28T03:29:19.398Z,23.87
2018-11-28T03:31:46.512Z,23.45
2018-11-28T03:34:13.620Z,23.55
2018-11-28T03:36:40.732Z,23.52
2018-11-28T03:39:08.579Z,24.90
2018-11-28T03:41:35.727Z,23.32
2018-11-28T03:44:02.858Z,23.67
2018-11-28T03:46:29.971Z,23.32
2018-11-28T03:48:57.050Z,24.35
2018-11-28T03:51:24.191Z,22.62
2018-11-28T03:53:51.296Z,23.22
2018-11-28T03:56:18.394Z,23.18
2018-11-28T03:58:45.553Z,23.67
2018-11-28T04:01:12.678Z,24.60
2018-11-28T04:03:39.774Z,24.35
2018-11-28T04:06:06.887Z,24.57
2018-11-28T04:08:33.995Z,24.10
2018-11-28T04:11:01.122Z,23.57
2018-11-28T04:13:28.231Z,24.35
2018-11-28T04:15:55.334Z,23.62
2018-11-28T04:18:22.490Z,24.47
2018-11-28T04:20:49.601Z,24.10
2018-11-28T04:23:16.715Z,24.77
2018-11-28T04:25:43.806Z,23.52
2018-11-28T04:28:10.922Z,23.47
2018-11-28T04:30:38.034Z,23.77
2018-11-28T04:33:05.167Z,24.90
2018-11-28T04:35:32.264Z,25.00
2018-11-28T04:37:59.358Z,23.65
2018-11-28T04:40:26.485Z,24.25
2018-11-28T04:42:53.599Z,24.63
2018-11-28T04:45:22.704Z,24.20
2018-11-28T04:47:50.747Z,24.23
2018-11-28T04:50:17.858Z,24.87
2018-11-28T04:52:44.963Z,26.62
2018-11-28T04:55:14.598Z,24.37
2018-11-28T04:57:41.703Z,25.13
2018-11-28T05:00:11.343Z,25.30
2018-11-28T05:02:38.467Z,25.17
2018-11-28T05:05:06.438Z,23.95
2018-11-28T05:07:33.539Z,24.00
2018-11-28T05:10:00.649Z,24.70
2018-11-28T05:12:27.780Z,24.63
2018-11-28T05:14:54.885Z,24.20
2018-11-28T05:17:22.006Z,24.67
2018-11-28T05:19:49.121Z,25.55
2018-11-28T05:22:16.235Z,24.85
2018-11-28T05:24:43.354Z,26.05
2018-11-28T05:27:10.502Z,24.67
2018-11-28T05:29:37.602Z,24.75
2018-11-28T05:32:05.587Z,25.10
2018-11-28T05:34:32.707Z,24.47
2018-11-28T05:36:59.819Z,24.60
2018-11-28T05:39:26.903Z,25.48
2018-11-28T05:41:54.004Z,24.77
2018-11-28T05:44:21.115Z,25.20
2018-11-28T05:46:48.217Z,24.27
2018-11-28T05:49:15.344Z,23.67
2018-11-28T05:51:42.462Z,24.67
2018-11-28T05:54:09.618Z,24.70
2018-11-28T05:56:36.732Z,24.63
2018-11-28T05:59:04.137Z,23.38
2018-11-28T06:01:31.235Z,25.90
2018-11-28T06:03:58.331Z,24.77
2018-11-28T06:06:25.419Z,24.20
2018-11-28T06:08:52.524Z,23.40
2018-11-28T06:11:19.615Z,24.17
2018-11-28T06:13:46.734Z,24.95
2018-11-28T06:16:13.869Z,24.37
2018-11-28T06:18:40.970Z,24.97
2018-11-28T06:21:08.099Z,24.77
2018-11-28T06:23:35.194Z,24.50
2018-11-28T06:26:02.296Z,24.10
2018-11-28T06:28:29.390Z,24.43
2018-11-28T06:30:56.511Z,24.05
2018-11-28T06:33:23.610Z,24.13
2018-11-28T06:35:50.701Z,24.27
2018-11-28T06:38:17.803Z,24.00
2018-11-28T06:40:44.926Z,24.47
2018-11-28T06:43:12.025Z,23.42
2018-11-28T06:45:39.124Z,23.67
2018-11-28T06:48:06.228Z,23.07
2018-11-28T06:50:33.327Z,23.63
2018-11-28T06:53:00.415Z,23.57
2018-11-28T06:55:27.508Z,23.93
2018-11-28T06:57:54.597Z,23.83
2018-11-28T07:00:22.214Z,24.77
2018-11-28T07:02:50.455Z,24.60
2018-11-28T07:05:17.624Z,24.70
2018-11-28T07:07:44.734Z,24.80
2018-11-28T07:10:13.045Z,24.03
2018-11-28T07:12:40.181Z,23.57
2018-11-28T07:15:13.485Z,24.60
2018-11-28T07:17:41.002Z,23.97
2018-11-28T07:20:10.234Z,22.97
2018-11-28T07:22:37.339Z,23.47
2018-11-28T07:25:06.580Z,23.27
2018-11-28T07:27:33.694Z,23.10
2018-11-28T07:30:00.790Z,23.67
2018-11-28T07:32:27.882Z,21.43
2018-11-28T07:34:54.990Z,22.50
2018-11-28T07:37:22.091Z,23.97
2018-11-28T07:39:49.191Z,22.90
2018-11-28T07:42:16.269Z,23.13
2018-11-28T07:44:43.368Z,22.20
2018-11-28T07:47:10.463Z,22.70
2018-11-28T07:49:37.555Z,22.67
2018-11-28T07:52:04.988Z,23.17
2018-11-28T07:54:32.078Z,22.77
2018-11-28T07:56:59.188Z,22.67
2018-11-28T07:59:26.281Z,21.90
2018-11-28T08:01:53.694Z,23.77
2018-11-28T08:04:21.039Z,23.60
2018-11-28T08:06:47.956Z,22.80
2018-11-28T08:09:15.058Z,22.07
2018-11-28T08:11:42.151Z,23.47
2018-11-28T08:14:09.262Z,23.40
2018-11-28T08:16:36.390Z,23.10
2018-11-28T08:19:03.547Z,23.40
2018-11-28T08:21:30.642Z,22.77
2018-11-28T08:23:57.746Z,23.30
2018-11-28T08:26:24.863Z,22.53
2018-11-28T08:28:52.026Z,23.60
2018-11-28T08:31:19.117Z,21.50
2018-11-28T08:33:46.216Z,22.80
2018-11-28T08:36:13.316Z,24.07
2018-11-28T08:38:40.471Z,23.10
2018-11-28T08:41:08.803Z,24.57
2018-11-28T08:43:34.742Z,22.27
2018-11-28T08:46:01.854Z,23.20
2018-11-28T08:48:28.958Z,22.43
2018-11-28T08:50:56.046Z,23.60
2018-11-28T08:53:23.178Z,22.03
2018-11-28T08:55:50.750Z,23.03
2018-11-28T08:58:17.930Z,21.57
2018-11-28T09:00:45.031Z,23.63
2018-11-28T09:03:12.134Z,22.83
2018-11-28T09:05:39.235Z,23.53
2018-11-28T09:08:06.358Z,23.13
2018-11-28T09:10:33.519Z,24.17
2018-11-28T09:13:04.011Z,22.93
2018-11-28T09:15:28.638Z,22.80
2018-11-28T09:17:55.958Z,23.60
2018-11-28T09:20:23.077Z,24.73
2018-11-28T09:22:50.217Z,23.90
2018-11-28T09:25:17.863Z,23.50
2018-11-28T09:27:46.386Z,25.10
2018-11-28T09:30:16.772Z,22.67
2018-11-28T09:32:44.100Z,24.57
2018-11-28T09:35:11.995Z,22.53
2018-11-28T09:37:39.135Z,22.87
2018-11-28T09:40:09.575Z,23.33
2018-11-28T09:42:37.224Z,23.17
2018-11-28T09:45:04.903Z,22.80
2018-11-28T09:47:32.002Z,22.60
2018-11-28T09:49:59.106Z,23.50
2018-11-28T09:52:26.182Z,22.57
2018-11-28T09:54:53.287Z,22.90
2018-11-28T09:57:20.399Z,22.10
2018-11-28T09:59:47.499Z,22.40
2018-11-28T10:02:14.607Z,23.10
2018-11-28T10:04:41.711Z,22.77
2018-11-28T10:07:08.815Z,21.37
2018-11-28T10:09:35.902Z,22.57
2018-11-28T10:12:03.023Z,23.70
2018-11-28T10:14:30.162Z,20.90
2018-11-28T10:16:57.579Z,21.13
2018-11-28T10:19:24.356Z,21.83
2018-11-28T10:21:51.442Z,21.77
2018-11-28T10:24:18.563Z,21.93
2018-11-28T10:26:45.658Z,22.10
2018-11-28T10:29:12.776Z,19.57
2018-11-28T10:31:39.882Z,21.00
2018-11-28T10:34:06.986Z,21.87
2018-11-28T10:36:34.094Z,20.60
2018-11-28T10:39:01.182Z,21.23
2018-11-28T10:41:28.356Z,20.90
2018-11-28T10:43:55.442Z,20.43
2018-11-28T10:46:22.555Z,20.80
2018-11-28T10:48:49.650Z,20.97
2018-11-28T10:51:16.751Z,21.73
2018-11-28T10:53:43.947Z,19.97
2018-11-28T10:56:11.085Z,19.93
2018-11-28T10:58:38.171Z,19.77
2018-11-28T11:01:11.106Z,19.07
2018-11-28T11:03:43.802Z,18.67
2018-11-28T11:06:16.549Z,19.20
2018-11-28T11:08:49.455Z,19.50
2018-11-28T11:11:22.287Z,19.27
2018-11-28T11:13:55.145Z,18.57
2018-11-28T11:16:31.066Z,18.17
2018-11-28T11:18:58.718Z,17.77
2018-11-28T11:21:26.641Z,17.10
2018-11-28T11:23:53.781Z,16.53
2018-11-28T11:26:20.902Z,16.20
2018-11-28T11:28:48.019Z,15.43
2018-11-28T11:31:15.145Z,16.40
2018-11-28T11:33:42.271Z,15.43
2018-11-28T11:36:09.370Z,14.83
2018-11-28T11:38:36.521Z,14.40
2018-11-28T11:41:03.666Z,14.27
2018-11-28T11:43:30.806Z,14.27
2018-11-28T11:45:57.956Z,13.77
2018-11-28T11:48:25.074Z,12.67
2018-11-28T11:50:52.178Z,13.00
2018-11-28T11:53:19.335Z,12.50
2018-11-28T11:55:46.468Z,12.77
2018-11-28T11:58:13.575Z,12.33
2018-11-28T12:00:42.062Z,11.10
2018-11-28T12:03:10.527Z,10.97
2018-11-28T12:05:39.028Z,12.13
2018-11-28T12:08:06.702Z,13.17
2018-11-28T12:10:33.831Z,12.57
2018-11-28T12:13:00.994Z,12.53
2018-11-28T12:15:28.173Z,11.50
2018-11-28T12:17:55.287Z,12.53
2018-11-28T12:20:30.512Z,12.17
2018-11-28T12:22:57.652Z,10.77
2018-11-28T12:25:24.771Z,11.00
2018-11-28T12:27:51.916Z,12.20
2018-11-28T12:30:19.725Z,12.27
2018-11-28T12:32:46.850Z,11.50
2018-11-28T12:35:15.278Z,11.77
2018-11-28T12:37:42.426Z,12.23
2018-11-28T12:40:11.009Z,11.30
2018-11-28T12:42:38.260Z,12.00
2018-11-28T12:45:12.703Z,11.63
2018-11-28T12:47:39.947Z,11.93
2018-11-28T12:50:38.838Z,11.80
2018-11-28T12:53:07.823Z,10.67
2018-11-28T12:55:35.919Z,10.53
2018-11-28T12:58:03.344Z,10.47
2018-11-28T13:00:32.862Z,11.27
2018-11-28T13:02:59.974Z,11.30
2018-11-28T13:05:27.097Z,11.00
2018-11-28T13:07:54.243Z,10.50
2018-11-28T13:10:24.528Z,10.73
2018-11-28T13:12:51.745Z,10.97
2018-11-28T13:15:20.068Z,11.07
2018-11-28T13:17:47.182Z,10.93
2018-11-28T13:20:16.408Z,10.87
2018-11-28T13:22:44.471Z,10.33
2018-11-28T13:25:13.576Z,10.87
2018-11-28T13:27:40.853Z,10.17
2018-11-28T13:30:21.040Z,10.77
2018-11-28T13:32:49.070Z,11.03
2018-11-28T13:35:18.356Z,11.33
2018-11-28T13:37:46.398Z,11.53
2018-11-28T13:40:14.701Z,11.27
2018-11-28T13:42:41.851Z,12.13
2018-11-28T13:45:11.466Z,11.23
2018-11-28T13:47:38.658Z,11.90
2018-11-28T13:50:07.807Z,12.40
2018-11-28T13:52:34.915Z,10.37
2018-11-28T13:55:37.678Z,11.23
2018-11-28T13:57:29.198Z,11.30
2018-11-28T13:59:56.304Z,11.00
2018-11-28T14:02:23.403Z,11.60
2018-11-28T14:04:50.501Z,11.87
2018-11-28T14:07:17.655Z,12.50
2018-11-28T14:09:44.784Z,12.83
2018-11-28T14:12:11.906Z,12.90
2018-11-28T14:14:39.010Z,12.63
2018-11-28T14:17:06.143Z,10.40
2018-11-28T14:19:33.267Z,10.90
2018-11-28T14:22:00.368Z,10.97
2018-11-28T14:24:27.478Z,10.27
2018-11-28T14:26:54.586Z,9.67
2018-11-28T14:29:21.698Z,9.80
2018-11-28T14:31:48.843Z,10.63
2018-11-28T14:34:15.995Z,11.00
2018-11-28T14:36:43.131Z,10.33
2018-11-28T14:39:10.270Z,10.73
2018-11-28T14:41:37.382Z,10.40
2018-11-28T14:44:04.575Z,10.70
2018-11-28T14:46:31.697Z,9.97
2018-11-28T14:48:59.834Z,9.97
2018-11-28T14:51:25.926Z,9.83
2018-11-28T14:53:53.043Z,9.43
2018-11-28T14:56:20.199Z,8.90
2018-11-28T14:58:47.299Z,8.67
2018-11-28T15:01:14.390Z,8.10
2018-11-28T15:03:41.503Z,8.73
2018-11-28T15:06:12.831Z,8.77
2018-11-28T15:08:39.919Z,9.27
2018-11-28T15:11:09.926Z,9.00
2018-11-28T15:13:37.691Z,8.77
2018-11-28T15:16:05.006Z,8.33
2018-11-28T15:18:32.130Z,8.30
2018-11-28T15:20:59.250Z,8.27
2018-11-28T15:23:26.371Z,7.37
2018-11-28T15:25:53.473Z,8.73
2018-11-28T15:28:20.599Z,8.00
2018-11-28T15:30:47.726Z,8.53
2018-11-28T15:33:14.853Z,8.03
2018-11-28T15:35:41.987Z,7.60
2018-11-28T15:38:09.101Z,7.63
2018-11-28T15:40:36.290Z,7.27
2018-11-28T15:43:03.443Z,7.70
2018-11-28T15:45:30.568Z,8.23
2018-11-28T15:47:57.687Z,7.57
2018-11-28T15:50:24.818Z,7.30
2018-11-28T15:52:51.915Z,8.10
2018-11-28T15:55:19.057Z,7.60
2018-11-28T15:57:46.179Z,7.87
2018-11-28T16:00:18.971Z,7.70
2018-11-28T16:02:46.103Z,8.23
2018-11-28T16:05:13.260Z,8.47
2018-11-28T16:07:40.435Z,8.40
2018-11-28T16:10:15.027Z,8.13
2018-11-28T16:12:42.994Z,8.77
2018-11-28T16:15:12.298Z,8.07
2018-11-28T16:17:39.406Z,10.53
2018-11-28T16:20:06.532Z,10.33
2018-11-28T16:22:33.636Z,10.43
2018-11-28T16:25:00.759Z,9.50
2018-11-28T16:27:27.938Z,8.87
2018-11-28T16:29:55.098Z,8.90
2018-11-28T16:32:22.231Z,9.27
2018-11-28T16:34:49.342Z,8.20
2018-11-28T16:37:16.442Z,8.10
2018-11-28T16:39:43.523Z,8.33
2018-11-28T16:42:10.630Z,8.50
2018-11-28T16:44:37.711Z,8.70
2018-11-28T16:47:05.290Z,8.37
2018-11-28T16:49:32.372Z,8.13
2018-11-28T16:51:59.463Z,8.20
2018-11-28T16:54:26.654Z,8.67
2018-11-28T16:56:53.762Z,8.30
2018-11-28T16:59:20.869Z,8.53
2018-11-28T17:01:47.976Z,8.87
2018-11-28T17:04:15.067Z,8.20
2018-11-28T17:06:42.171Z,8.33
2018-11-28T17:09:09.386Z,7.77
2018-11-28T17:11:36.487Z,8.47
2018-11-28T17:14:03.642Z,8.83
2018-11-28T17:16:30.758Z,7.83
2018-11-28T17:18:57.862Z,9.00
2018-11-28T17:21:24.986Z,9.17
2018-11-28T17:23:52.098Z,8.90
2018-11-28T17:26:19.199Z,9.10
2018-11-28T17:28:46.294Z,8.27
2018-11-28T17:31:13.475Z,10.43
2018-11-28T17:33:40.525Z,8.27
2018-11-28T17:36:07.672Z,7.53
2018-11-28T17:38:34.810Z,7.70
2018-11-28T17:41:01.935Z,7.50
2018-11-28T17:43:29.039Z,7.90
2018-11-28T17:45:56.122Z,7.50
2018-11-28T17:48:23.203Z,8.20
2018-11-28T17:50:50.296Z,7.53
2018-11-28T17:53:17.383Z,6.57
2018-11-28T17:55:50.051Z,7.43
2018-11-28T17:58:17.178Z,7.00
2018-11-28T18:00:44.298Z,7.20
2018-11-28T18:03:11.410Z,7.30
2018-11-28T18:05:38.546Z,7.90
2018-11-28T18:08:05.719Z,7.07
2018-11-28T18:10:32.803Z,7.87
2018-11-28T18:13:05.115Z,7.77
2018-11-28T18:15:32.244Z,7.47
2018-11-28T18:17:59.354Z,6.90
2018-11-28T18:20:26.518Z,7.70
2018-11-28T18:22:53.626Z,8.20
2018-11-28T18:25:21.395Z,7.30
2018-11-28T18:27:48.539Z,7.17
2018-11-28T18:30:16.374Z,7.53
2018-11-28T18:32:43.491Z,7.77
2018-11-28T18:35:10.854Z,7.23
2018-11-28T18:37:37.983Z,7.27
2018-11-28T18:40:08.582Z,6.60
2018-11-28T18:42:35.726Z,6.40
2018-11-28T18:45:02.919Z,6.97
2018-11-28T18:47:30.006Z,6.63
2018-11-28T18:49:57.110Z,7.50
2018-11-28T18:52:24.213Z,7.47
2018-11-28T18:54:51.322Z,7.80
2018-11-28T18:57:18.434Z,6.90
2018-11-28T18:59:45.527Z,6.97
2018-11-28T19:02:12.634Z,7.13
2018-11-28T19:04:39.747Z,7.27
2018-11-28T19:07:06.854Z,8.00
2018-11-28T19:09:39.705Z,6.93
2018-11-28T19:12:06.846Z,6.93
2018-11-28T19:14:33.946Z,7.57
2018-11-28T19:17:01.055Z,6.50
2018-11-28T19:19:28.170Z,7.00
2018-11-28T19:21:55.278Z,7.37
2018-11-28T19:24:22.437Z,7.37
2018-11-28T19:26:49.530Z,7.13
2018-11-28T19:29:16.626Z,7.60
2018-11-28T19:31:43.727Z,7.33
2018-11-28T19:34:10.832Z,7.70
2018-11-28T19:36:37.922Z,7.37
2018-11-28T19:39:08.172Z,7.87
2018-11-28T19:41:35.294Z,7.33
2018-11-28T19:44:02.415Z,7.23
2018-11-28T19:46:29.517Z,7.70
2018-11-28T19:48:56.645Z,7.40
2018-11-28T19:51:23.747Z,7.87
2018-11-28T19:53:50.845Z,7.57
2018-11-28T19:56:17.938Z,7.37
2018-11-28T19:58:45.044Z,7.60
2018-11-28T20:01:12.150Z,7.70
2018-11-28T20:03:39.262Z,7.33
2018-11-28T20:06:06.387Z,7.03
2018-11-28T20:08:33.521Z,7.40
2018-11-28T20:11:00.615Z,7.60
2018-11-28T20:13:27.711Z,8.03
2018-11-28T20:15:54.802Z,7.33
2018-11-28T20:18:21.887Z,6.77
2018-11-28T20:20:49.019Z,7.60
2018-11-28T20:23:16.112Z,7.20
2018-11-28T20:25:43.642Z,7.67
2018-11-28T20:28:10.755Z,7.03
2018-11-28T20:30:42.007Z,6.80
2018-11-28T20:33:09.747Z,7.50
2018-11-28T20:35:37.637Z,6.93
2018-11-28T20:38:05.710Z,7.00
2018-11-28T20:40:32.815Z,7.33
2018-11-28T20:42:59.935Z,6.40
2018-11-28T20:45:27.051Z,7.03
2018-11-28T20:47:54.171Z,7.00
2018-11-28T20:50:24.029Z,7.07
2018-11-28T20:52:55.285Z,7.60
2018-11-28T20:55:22.103Z,6.90
2018-11-28T20:57:49.916Z,7.20
2018-11-28T21:00:18.589Z,7.17
2018-11-28T21:02:45.711Z,7.27
2018-11-28T21:05:12.895Z,8.00
2018-11-28T21:07:40.011Z,7.70
2018-11-28T21:10:16.988Z,7.20
2018-11-28T21:12:44.108Z,7.70
2018-11-28T21:15:11.239Z,7.27
2018-11-28T21:17:38.352Z,7.30
2018-11-28T21:20:09.694Z,7.40
2018-11-28T21:22:36.794Z,7.73
2018-11-28T21:25:04.618Z,7.80
2018-11-28T21:27:31.707Z,7.10
2018-11-28T21:29:58.815Z,8.03
2018-11-28T21:32:25.922Z,7.53
2018-11-28T21:34:53.042Z,7.37
2018-11-28T21:37:20.126Z,7.53
2018-11-28T21:39:53.460Z,7.20
2018-11-28T21:42:21.231Z,7.33
2018-11-28T21:44:48.359Z,7.90
2018-11-28T21:47:15.462Z,8.07
2018-11-28T21:49:42.553Z,7.30
2018-11-28T21:52:09.655Z,7.83
2018-11-28T21:54:36.750Z,7.73
2018-11-28T21:57:04.208Z,8.30
2018-11-28T21:59:31.291Z,8.03
2018-11-28T22:01:58.386Z,7.83
2018-11-28T22:04:25.469Z,7.70
2018-11-28T22:06:52.562Z,7.77
2018-11-28T22:09:19.670Z,7.90
2018-11-28T22:11:46.771Z,8.97
2018-11-28T22:14:13.861Z,8.13
2018-11-28T22:16:40.962Z,7.93
2018-11-28T22:19:08.066Z,8.03
2018-11-28T22:21:35.145Z,8.20
2018-11-28T22:24:02.250Z,7.90
2018-11-28T22:26:29.349Z,8.37
2018-11-28T22:28:56.441Z,7.87
2018-11-28T22:31:23.531Z,7.80
2018-11-28T22:33:50.625Z,8.17
2018-11-28T22:36:17.719Z,8.10
2018-11-28T22:38:44.876Z,8.53
2018-11-28T22:41:11.967Z,7.67
2018-11-28T22:43:39.086Z,8.20
2018-11-28T22:46:06.185Z,8.13
2018-11-28T22:48:33.287Z,7.77
2018-11-28T22:51:00.386Z,8.23
2018-11-28T22:53:27.499Z,7.60
2018-11-28T22:55:54.595Z,8.07
2018-11-28T22:58:21.707Z,7.43
2018-11-28T23:00:54.440Z,7.97
2018-11-28T23:03:21.530Z,7.83
2018-11-28T23:05:49.727Z,7.70
2018-11-28T23:08:17.601Z,7.63
2018-11-28T23:10:44.870Z,7.60
2018-11-28T23:13:12.933Z,7.03
2018-11-28T23:15:40.047Z,7.20
2018-11-28T23:18:08.272Z,7.20
2018-11-28T23:20:35.515Z,7.60
2018-11-28T23:23:02.714Z,7.67
2018-11-28T23:25:29.822Z,7.10
2018-11-28T23:27:56.924Z,7.57
2018-11-28T23:30:24.019Z,7.27
2018-11-28T23:32:52.994Z,6.80
2018-11-28T23:35:20.175Z,7.00
2018-11-28T23:37:48.091Z,7.37
2018-11-28T23:40:19.270Z,6.73
2018-11-28T23:42:46.430Z,7.17
2018-11-28T23:45:14.169Z,6.53
2018-11-28T23:47:41.278Z,7.33
2018-11-28T23:50:16.046Z,6.83
2018-11-28T23:52:43.302Z,7.40
2018-11-28T23:55:11.782Z,6.80
2018-11-28T23:57:38.859Z,7.23
